createdAt,value
2022-09-14T00:01:26.649Z,6.35
2022-09-14T00:04:16.645Z,6.10
2022-09-14T00:06:43.816Z,7.55
2022-09-14T00:09:20.137Z,6.82
2022-09-14T00:11:47.660Z,5.75
2022-09-14T00:14:14.539Z,6.05
2022-09-14T00:16:42.404Z,7.35
2022-09-14T00:19:17.638Z,7.13
2022-09-14T00:21:44.525Z,7.22
2022-09-14T00:24:12.156Z,8.95
2022-09-14T00:26:38.951Z,5.82
2022-09-14T00:29:06.020Z,6.20
2022-09-14T00:31:36.013Z,4.57
2022-09-14T00:34:04.177Z,4.40
2022-09-14T00:36:32.241Z,6.05
2022-09-14T00:39:00.689Z,4.25
2022-09-14T00:41:31.909Z,4.30
2022-09-14T00:44:05.633Z,5.80
2022-09-14T00:46:37.245Z,5.18
2022-09-14T00:49:10.012Z,5.78
2022-09-14T00:51:39.147Z,3.95
2022-09-14T00:54:07.692Z,4.35
2022-09-14T00:56:34.752Z,5.57
2022-09-14T00:59:10.632Z,7.47
2022-09-14T01:01:37.706Z,4.95
2022-09-14T01:04:04.706Z,8.98
2022-09-14T01:06:41.426Z,4.80
2022-09-14T01:09:34.522Z,4.57
2022-09-14T01:12:20.516Z,7.00
2022-09-14T01:15:05.665Z,4.78
2022-09-14T01:18:01.249Z,8.32
2022-09-14T01:20:38.788Z,4.90
2022-09-14T01:23:27.590Z,6.63
2022-09-14T01:26:22.807Z,6.03
2022-09-14T01:29:11.390Z,6.63
2022-09-14T01:31:47.574Z,5.88
2022-09-14T01:34:42.967Z,4.75
2022-09-14T01:37:15.453Z,3.10
2022-09-14T01:39:57.031Z,6.00
2022-09-14T01:42:27.374Z,4.85
2022-09-14T01:44:58.206Z,4.65
2022-09-14T01:47:36.723Z,4.35
2022-09-14T01:50:12.980Z,6.43
2022-09-14T01:52:51.645Z,5.82
2022-09-14T01:55:47.445Z,7.32
2022-09-14T01:58:40.514Z,5.85
2022-09-14T02:01:10.013Z,5.35
2022-09-14T02:03:44.965Z,6.95
2022-09-14T02:06:33.092Z,3.63
2022-09-14T02:09:00.588Z,7.10
2022-09-14T02:11:27.572Z,4.18
2022-09-14T02:13:54.719Z,7.03
2022-09-14T02:16:23.562Z,4.05
2022-09-14T02:18:50.579Z,8.77
2022-09-14T02:21:20.861Z,3.72
2022-09-14T02:23:49.149Z,7.60
2022-09-14T02:26:17.660Z,4.82
2022-09-14T02:28:44.644Z,7.63
2022-09-14T02:31:27.717Z,7.45
2022-09-14T02:34:02.158Z,6.75
2022-09-14T02:37:01.464Z,5.00
2022-09-14T02:39:46.960Z,4.53
2022-09-14T02:42:46.465Z,5.13
2022-09-14T02:46:05.616Z,6.05
2022-09-14T02:48:35.416Z,4.50
2022-09-14T02:51:12.310Z,8.40
2022-09-14T02:53:47.532Z,5.75
2022-09-14T02:56:15.166Z,8.38
2022-09-14T02:58:44.792Z,5.53
2022-09-14T03:01:14.983Z,6.75
2022-09-14T03:03:41.898Z,5.05
2022-09-14T03:06:08.771Z,4.90
2022-09-14T03:08:35.562Z,7.65
2022-09-14T03:11:02.996Z,6.07
2022-09-14T03:13:29.859Z,5.22
2022-09-14T03:15:56.772Z,7.18
2022-09-14T03:18:23.574Z,6.85
2022-09-14T03:20:50.242Z,6.82
2022-09-14T03:23:16.978Z,7.03
2022-09-14T03:25:44.557Z,6.35
2022-09-14T03:28:12.494Z,12.77
2022-09-14T03:30:39.751Z,8.50
2022-09-14T03:33:06.775Z,4.72
2022-09-14T03:35:34.132Z,7.85
2022-09-14T03:38:03.152Z,7.30
2022-09-14T03:40:30.544Z,10.27
2022-09-14T03:42:57.884Z,6.70
2022-09-14T03:45:24.643Z,8.40
2022-09-14T03:47:51.508Z,8.90
2022-09-14T03:50:19.300Z,4.45
2022-09-14T03:52:46.053Z,4.22
2022-09-14T03:55:12.900Z,4.85
2022-09-14T03:57:39.664Z,4.70
2022-09-14T04:00:07.595Z,4.32
2022-09-14T04:02:34.316Z,4.15
2022-09-14T04:05:01.122Z,4.07
2022-09-14T04:07:28.057Z,3.60
2022-09-14T04:09:54.805Z,3.10
2022-09-14T04:12:21.562Z,2.88
2022-09-14T04:14:48.280Z,3.28
2022-09-14T04:17:15.135Z,2.92
2022-09-14T04:19:42.239Z,4.00
2022-09-14T04:22:09.294Z,2.95
2022-09-14T04:24:36.113Z,3.55
2022-09-14T04:27:02.896Z,2.75
2022-09-14T04:29:30.625Z,3.83
2022-09-14T04:31:58.030Z,3.40
2022-09-14T04:34:24.932Z,3.17
2022-09-14T04:36:51.658Z,3.38
2022-09-14T04:39:18.541Z,2.65
2022-09-14T04:41:45.568Z,2.83
2022-09-14T04:44:12.644Z,3.10
2022-09-14T04:46:46.047Z,2.88
2022-09-14T04:49:14.467Z,2.97
2022-09-14T04:51:41.262Z,3.40
2022-09-14T04:54:07.965Z,3.50
2022-09-14T04:56:36.979Z,4.07
2022-09-14T04:59:05.701Z,3.53
2022-09-14T05:01:38.351Z,3.78
2022-09-14T05:04:06.312Z,3.70
2022-09-14T05:06:35.758Z,3.45
2022-09-14T05:09:04.900Z,4.20
2022-09-14T05:11:33.779Z,4.10
2022-09-14T05:14:01.594Z,4.18
2022-09-14T05:16:30.557Z,4.13
2022-09-14T05:19:09.391Z,5.18
2022-09-14T05:21:37.402Z,4.15
2022-09-14T05:24:14.669Z,3.80
2022-09-14T05:26:43.198Z,3.80
2022-09-14T05:29:17.870Z,4.15
2022-09-14T05:31:44.971Z,4.22
2022-09-14T05:34:12.224Z,4.70
2022-09-14T05:36:39.887Z,3.92
2022-09-14T05:39:07.745Z,4.25
2022-09-14T05:41:34.604Z,4.40
2022-09-14T05:44:01.429Z,4.75
2022-09-14T05:46:28.217Z,6.15
2022-09-14T05:48:54.938Z,4.20
2022-09-14T05:51:23.715Z,4.68
2022-09-14T05:53:52.064Z,4.30
2022-09-14T05:56:20.273Z,4.88
2022-09-14T05:58:47.835Z,4.15
2022-09-14T06:01:18.828Z,4.72
2022-09-14T06:03:47.337Z,4.70
2022-09-14T06:06:17.449Z,4.72
2022-09-14T06:08:44.798Z,6.80
2022-09-14T06:11:16.454Z,4.47
2022-09-14T06:13:44.976Z,4.68
2022-09-14T06:16:15.238Z,5.43
2022-09-14T06:18:43.822Z,4.70
2022-09-14T06:21:15.077Z,5.00
2022-09-14T06:23:42.146Z,5.65
2022-09-14T06:26:09.058Z,4.65
2022-09-14T06:28:36.363Z,5.35
2022-09-14T06:31:04.646Z,5.13
2022-09-14T06:33:31.905Z,4.95
2022-09-14T06:36:04.783Z,6.28
2022-09-14T06:38:31.518Z,6.93
2022-09-14T06:41:00.732Z,5.30
2022-09-14T06:43:30.912Z,5.10
2022-09-14T06:46:00.712Z,5.47
2022-09-14T06:48:34.384Z,6.25
2022-09-14T06:51:10.293Z,5.95
2022-09-14T06:53:37.003Z,6.20
2022-09-14T06:56:05.016Z,6.72
2022-09-14T06:58:33.878Z,6.55
2022-09-14T07:01:11.218Z,6.22
2022-09-14T07:03:39.257Z,8.07
2022-09-14T07:06:14.350Z,8.07
2022-09-14T07:08:41.786Z,7.22
2022-09-14T07:11:10.959Z,6.70
2022-09-14T07:13:38.133Z,6.68
2022-09-14T07:16:05.349Z,6.70
2022-09-14T07:18:33.013Z,6.57
2022-09-14T07:21:08.493Z,6.07
2022-09-14T07:23:40.505Z,7.40
2022-09-14T07:26:11.628Z,6.93
2022-09-14T07:28:39.260Z,6.97
2022-09-14T07:31:14.439Z,6.28
2022-09-14T07:33:41.207Z,7.45
2022-09-14T07:36:12.427Z,6.60
2022-09-14T07:38:52.277Z,7.30
2022-09-14T07:41:27.522Z,6.70
2022-09-14T07:43:57.198Z,6.43
2022-09-14T07:46:24.476Z,7.25
2022-09-14T07:48:56.652Z,7.43
2022-09-14T07:51:24.250Z,6.60
2022-09-14T07:53:51.056Z,5.82
2022-09-14T07:56:18.154Z,6.57
2022-09-14T07:58:45.249Z,6.10
2022-09-14T08:01:15.873Z,6.38
2022-09-14T08:03:43.977Z,6.18
2022-09-14T08:06:16.323Z,7.72
2022-09-14T08:08:51.261Z,6.15
2022-09-14T08:11:21.332Z,6.72
2022-09-14T08:13:56.405Z,6.30
2022-09-14T08:16:25.007Z,6.15
2022-09-14T08:19:03.702Z,6.00
2022-09-14T08:21:32.139Z,6.10
2022-09-14T08:23:59.827Z,6.47
2022-09-14T08:26:27.425Z,6.05
2022-09-14T08:28:56.292Z,6.20
2022-09-14T08:31:25.042Z,6.20
2022-09-14T08:33:54.489Z,5.60
2022-09-14T08:36:22.979Z,5.78
2022-09-14T08:38:50.241Z,5.45
2022-09-14T08:41:52.893Z,5.25
2022-09-14T08:44:39.424Z,5.45
2022-09-14T08:47:18.138Z,5.07
2022-09-14T08:50:03.230Z,5.18
2022-09-14T08:52:43.338Z,4.57
2022-09-14T08:55:33.897Z,5.18
2022-09-14T08:58:03.941Z,4.90
2022-09-14T09:01:00.156Z,5.97
2022-09-14T09:03:38.858Z,4.82
2022-09-14T09:06:30.533Z,4.93
2022-09-14T09:09:17.417Z,4.35
2022-09-14T09:11:48.491Z,4.90
2022-09-14T09:14:27.224Z,4.65
2022-09-14T09:16:58.222Z,4.60
2022-09-14T09:19:37.121Z,4.35
2022-09-14T09:22:06.560Z,4.68
2022-09-14T09:24:39.093Z,5.07
2022-09-14T09:27:11.276Z,4.28
2022-09-14T09:29:38.500Z,4.80
2022-09-14T09:32:08.885Z,4.55
2022-09-14T09:34:36.514Z,6.13
2022-09-14T09:37:03.330Z,4.70
2022-09-14T09:39:31.731Z,5.03
2022-09-14T09:42:07.474Z,5.00
2022-09-14T09:45:04.750Z,5.13
2022-09-14T09:47:43.577Z,4.70
2022-09-14T09:50:13.683Z,4.25
2022-09-14T09:53:06.529Z,5.03
2022-09-14T09:55:38.505Z,4.28
2022-09-14T09:58:41.836Z,4.40
2022-09-14T10:01:18.195Z,5.05
2022-09-14T10:04:19.055Z,6.65
2022-09-14T10:06:55.034Z,5.10
2022-09-14T10:09:27.040Z,4.32
2022-09-14T10:12:05.121Z,4.57
2022-09-14T10:14:34.508Z,4.90
2022-09-14T10:17:18.062Z,4.50
2022-09-14T10:19:53.927Z,3.88
2022-09-14T10:22:31.218Z,4.25
2022-09-14T10:25:22.269Z,4.65
2022-09-14T10:27:57.882Z,4.38
2022-09-14T10:30:34.553Z,4.28
2022-09-14T10:33:03.099Z,4.53
2022-09-14T10:35:59.115Z,4.32
2022-09-14T10:38:58.446Z,4.38
2022-09-14T10:41:36.149Z,4.55
2022-09-14T10:44:22.667Z,4.15
2022-09-14T10:47:05.375Z,4.68
2022-09-14T10:50:03.368Z,4.40
2022-09-14T10:53:16.743Z,4.65
2022-09-14T10:55:49.865Z,4.72
2022-09-14T10:58:23.806Z,4.90
2022-09-14T11:01:09.189Z,4.60
2022-09-14T11:03:46.877Z,4.95
2022-09-14T11:06:34.023Z,4.75
2022-09-14T11:09:34.063Z,5.20
2022-09-14T11:12:13.811Z,4.20
2022-09-14T11:14:46.449Z,4.60
2022-09-14T11:17:35.804Z,5.15
2022-09-14T11:20:29.327Z,4.68
2022-09-14T11:23:04.978Z,4.60
2022-09-14T11:25:56.730Z,4.30
2022-09-14T11:28:43.798Z,4.85
2022-09-14T11:31:18.988Z,4.60
2022-09-14T11:34:13.486Z,4.85
2022-09-14T11:36:52.373Z,5.05
2022-09-14T11:39:21.338Z,4.82
2022-09-14T11:41:55.754Z,4.45
2022-09-14T11:44:28.536Z,4.22
2022-09-14T11:47:07.358Z,4.32
2022-09-14T11:49:39.920Z,4.88
2022-09-14T11:52:20.946Z,3.92
2022-09-14T11:54:50.033Z,4.25
2022-09-14T11:57:23.821Z,4.15
2022-09-14T11:59:53.617Z,4.85
2022-09-14T12:02:23.372Z,4.63
2022-09-14T12:05:05.700Z,6.13
2022-09-14T12:07:47.553Z,4.38
2022-09-14T12:10:14.501Z,4.68
2022-09-14T12:12:41.240Z,4.50
2022-09-14T12:15:23.153Z,4.68
2022-09-14T12:17:51.902Z,4.18
2022-09-14T12:20:44.009Z,4.72
2022-09-14T12:23:30.052Z,4.60
2022-09-14T12:26:12.468Z,4.72
2022-09-14T12:28:48.164Z,4.65
2022-09-14T12:31:44.092Z,4.47
2022-09-14T12:34:33.070Z,5.13
2022-09-14T12:37:23.376Z,5.22
2022-09-14T12:40:23.286Z,4.40
2022-09-14T12:42:50.179Z,5.00
2022-09-14T12:45:50.082Z,4.70
2022-09-14T12:48:44.849Z,5.95
2022-09-14T12:51:26.899Z,5.10
2022-09-14T12:54:05.448Z,6.03
2022-09-14T12:56:46.724Z,6.00
2022-09-14T12:59:20.467Z,6.00
2022-09-14T13:01:53.266Z,5.53
2022-09-14T13:04:45.694Z,5.82
2022-09-14T13:07:17.998Z,5.53
2022-09-14T13:09:56.540Z,5.82
2022-09-14T13:12:37.057Z,5.65
2022-09-14T13:15:07.959Z,6.05
2022-09-14T13:17:34.656Z,5.35
2022-09-14T13:20:05.573Z,5.13
2022-09-14T13:22:33.602Z,4.90
2022-09-14T13:25:03.792Z,4.85
2022-09-14T13:27:37.174Z,4.60
2022-09-14T13:30:25.518Z,4.65
2022-09-14T13:32:55.333Z,4.53
2022-09-14T13:35:31.960Z,4.82
2022-09-14T13:38:06.207Z,5.07
2022-09-14T13:40:33.412Z,4.72
2022-09-14T13:43:00.797Z,5.88
2022-09-14T13:45:27.767Z,5.07
2022-09-14T13:47:55.075Z,5.18
2022-09-14T13:50:25.372Z,5.38
2022-09-14T13:53:08.335Z,6.18
2022-09-14T13:55:35.052Z,4.90
2022-09-14T13:58:22.112Z,5.90
2022-09-14T14:00:51.354Z,5.90
2022-09-14T14:03:46.467Z,5.55
2022-09-14T14:06:26.885Z,4.65
2022-09-14T14:09:06.142Z,5.07
2022-09-14T14:11:45.543Z,4.72
2022-09-14T14:14:28.999Z,4.30
2022-09-14T14:17:25.788Z,3.67
2022-09-14T14:19:54.842Z,3.60
2022-09-14T14:22:30.002Z,4.03
2022-09-14T14:25:14.488Z,3.83
2022-09-14T14:27:47.445Z,3.92
2022-09-14T14:30:17.659Z,3.53
2022-09-14T14:32:49.874Z,3.55
2022-09-14T14:35:20.126Z,2.92
2022-09-14T14:37:47.868Z,3.60
2022-09-14T14:40:16.109Z,3.50
2022-09-14T14:42:43.304Z,3.92
2022-09-14T14:45:19.490Z,2.60
2022-09-14T14:47:47.796Z,2.58
2022-09-14T14:50:17.170Z,2.10
2022-09-14T14:52:44.014Z,2.30
2022-09-14T14:55:10.805Z,2.05
2022-09-14T14:57:40.875Z,3.53
2022-09-14T15:00:14.788Z,2.20
2022-09-14T15:02:42.168Z,2.22
2022-09-14T15:05:09.683Z,2.90
2022-09-14T15:07:37.855Z,2.33
2022-09-14T15:10:05.940Z,2.55
2022-09-14T15:12:33.638Z,2.42
2022-09-14T15:15:00.850Z,2.30
2022-09-14T15:17:27.811Z,3.13
2022-09-14T15:19:54.607Z,7.45
2022-09-14T15:22:21.561Z,2.45
2022-09-14T15:24:48.372Z,2.72
2022-09-14T15:27:15.123Z,2.75
2022-09-14T15:29:41.917Z,2.70
2022-09-14T15:32:08.775Z,3.95
2022-09-14T15:34:35.584Z,3.03
2022-09-14T15:37:02.357Z,3.38
2022-09-14T15:39:31.277Z,2.67
2022-09-14T15:41:58.764Z,2.95
2022-09-14T15:44:25.502Z,2.83
2022-09-14T15:46:53.379Z,3.15
2022-09-14T15:49:23.553Z,3.47
2022-09-14T15:51:51.810Z,3.58
2022-09-14T15:54:22.967Z,3.42
2022-09-14T15:56:51.705Z,3.55
2022-09-14T15:59:19.794Z,3.70
2022-09-14T16:01:46.739Z,3.92
2022-09-14T16:04:14.176Z,4.03
2022-09-14T16:06:41.187Z,3.60
2022-09-14T16:09:10.086Z,3.63
2022-09-14T16:11:38.592Z,3.78
2022-09-14T16:14:06.514Z,4.45
2022-09-14T16:16:34.813Z,4.25
2022-09-14T16:19:10.982Z,4.50
2022-09-14T16:21:38.147Z,4.63
2022-09-14T16:24:08.730Z,4.82
2022-09-14T16:26:37.348Z,4.60
2022-09-14T16:29:05.904Z,4.95
2022-09-14T16:31:37.235Z,5.88
2022-09-14T16:34:07.211Z,6.20
2022-09-14T16:36:37.013Z,5.28
2022-09-14T16:39:06.398Z,5.75
2022-09-14T16:41:33.367Z,5.45
2022-09-14T16:44:02.213Z,5.45
2022-09-14T16:46:30.471Z,5.88
2022-09-14T16:48:58.663Z,6.05
2022-09-14T16:51:28.696Z,5.35
2022-09-14T16:53:56.012Z,5.60
2022-09-14T16:56:25.332Z,6.00
2022-09-14T16:58:54.183Z,6.00
2022-09-14T17:01:29.820Z,5.43
2022-09-14T17:03:59.588Z,5.50
2022-09-14T17:06:29.340Z,5.50
2022-09-14T17:09:00.346Z,5.35
2022-09-14T17:11:29.168Z,4.45
2022-09-14T17:13:55.991Z,4.57
2022-09-14T17:16:24.663Z,4.65
2022-09-14T17:18:54.058Z,4.38
2022-09-14T17:21:24.927Z,4.40
2022-09-14T17:23:51.879Z,4.60
2022-09-14T17:26:20.476Z,3.75
2022-09-14T17:28:49.657Z,4.38
2022-09-14T17:31:21.649Z,5.32
2022-09-14T17:33:49.120Z,5.60
2022-09-14T17:36:16.677Z,6.05
2022-09-14T17:38:44.371Z,6.30
2022-09-14T17:41:31.645Z,5.72
2022-09-14T17:44:01.340Z,5.65
2022-09-14T17:46:28.460Z,5.60
2022-09-14T17:48:57.811Z,5.40
2022-09-14T17:51:26.084Z,5.97
2022-09-14T17:53:56.692Z,5.75
2022-09-14T17:56:26.487Z,5.53
2022-09-14T17:59:02.327Z,5.32
2022-09-14T18:01:29.863Z,5.22
2022-09-14T18:03:59.299Z,5.30
2022-09-14T18:06:35.594Z,5.75
2022-09-14T18:09:05.941Z,5.38
2022-09-14T18:11:33.680Z,5.57
2022-09-14T18:14:00.728Z,5.68
2022-09-14T18:16:27.861Z,7.85
2022-09-14T18:18:57.676Z,10.60
2022-09-14T18:21:25.559Z,10.73
2022-09-14T18:23:54.555Z,9.75
2022-09-14T18:26:22.558Z,9.73
2022-09-14T18:28:51.020Z,10.48
2022-09-14T18:31:19.630Z,9.63
2022-09-14T18:33:48.387Z,8.80
2022-09-14T18:36:15.272Z,8.68
2022-09-14T18:38:42.323Z,8.13
2022-09-14T18:41:10.336Z,8.27
2022-09-14T18:43:37.270Z,8.75
2022-09-14T18:46:07.783Z,8.27
2022-09-14T18:48:35.103Z,9.30
2022-09-14T18:51:04.539Z,10.48
2022-09-14T18:53:32.010Z,9.63
2022-09-14T18:56:03.692Z,10.02
2022-09-14T18:58:37.976Z,11.15
2022-09-14T19:01:05.126Z,12.90
2022-09-14T19:03:32.483Z,10.65
2022-09-14T19:06:07.796Z,10.82
2022-09-14T19:08:35.921Z,11.45
2022-09-14T19:11:07.071Z,10.93
2022-09-14T19:13:34.289Z,10.25
2022-09-14T19:16:08.605Z,10.43
2022-09-14T19:18:35.705Z,11.40
2022-09-14T19:21:11.757Z,10.63
2022-09-14T19:23:38.834Z,10.20
2022-09-14T19:26:16.214Z,10.80
2022-09-14T19:28:43.663Z,10.95
2022-09-14T19:31:12.697Z,10.88
2022-09-14T19:33:45.030Z,10.32
2022-09-14T19:36:19.849Z,11.27
2022-09-14T19:38:48.343Z,9.48
2022-09-14T19:41:16.187Z,10.32
2022-09-14T19:43:43.654Z,10.40
2022-09-14T19:46:17.179Z,9.25
2022-09-14T19:48:44.959Z,9.63
2022-09-14T19:51:17.755Z,8.50
2022-09-14T19:53:47.012Z,8.93
2022-09-14T19:56:16.219Z,9.52
2022-09-14T19:58:47.530Z,11.38
2022-09-14T20:01:16.234Z,9.27
2022-09-14T20:03:44.668Z,10.77
2022-09-14T20:06:19.272Z,8.43
2022-09-14T20:08:47.126Z,8.60
2022-09-14T20:11:19.751Z,9.88
2022-09-14T20:13:50.267Z,10.32
2022-09-14T20:16:23.682Z,9.20
2022-09-14T20:18:51.368Z,11.70
2022-09-14T20:21:21.569Z,9.75
2022-09-14T20:24:14.167Z,11.25
2022-09-14T20:26:39.130Z,13.45
2022-09-14T20:29:05.878Z,10.85
2022-09-14T20:31:32.967Z,11.32
2022-09-14T20:34:00.099Z,9.52
2022-09-14T20:36:28.741Z,10.18
2022-09-14T20:38:58.715Z,10.90
2022-09-14T20:41:30.692Z,10.77
2022-09-14T20:43:57.903Z,10.45
2022-09-14T20:46:35.193Z,11.25
2022-09-14T20:49:04.193Z,10.13
2022-09-14T20:51:31.007Z,9.88
2022-09-14T20:53:57.831Z,9.05
2022-09-14T20:56:27.815Z,11.18
2022-09-14T20:58:56.766Z,10.40
2022-09-14T21:01:27.081Z,11.38
2022-09-14T21:03:54.525Z,14.75
2022-09-14T21:06:23.822Z,11.48
2022-09-14T21:08:51.397Z,13.45
2022-09-14T21:11:23.508Z,16.75
2022-09-14T21:13:51.818Z,12.13
2022-09-14T21:16:27.941Z,10.68
2022-09-14T21:19:07.065Z,13.70
2022-09-14T21:21:33.803Z,12.23
2022-09-14T21:24:01.387Z,11.82
2022-09-14T21:26:33.064Z,14.07
2022-09-14T21:29:02.276Z,14.02
2022-09-14T21:31:29.991Z,14.63
2022-09-14T21:33:59.164Z,13.70
2022-09-14T21:36:28.905Z,14.80
2022-09-14T21:38:59.805Z,14.15
2022-09-14T21:41:28.323Z,14.32
2022-09-14T21:43:56.045Z,17.48
2022-09-14T21:46:23.568Z,16.92
2022-09-14T21:48:50.878Z,14.88
2022-09-14T21:51:20.740Z,17.13
2022-09-14T21:53:53.131Z,15.88
2022-09-14T21:56:21.594Z,16.23
2022-09-14T21:58:53.203Z,18.17
2022-09-14T22:01:21.567Z,16.05
2022-09-14T22:03:53.057Z,15.73
2022-09-14T22:06:24.015Z,16.85
2022-09-14T22:08:52.560Z,15.70
2022-09-14T22:11:24.963Z,16.20
2022-09-14T22:13:55.720Z,14.73
2022-09-14T22:16:23.243Z,16.63
2022-09-14T22:18:55.723Z,15.10
2022-09-14T22:21:24.108Z,12.85
2022-09-14T22:23:59.315Z,14.98
2022-09-14T22:26:31.351Z,13.88
2022-09-14T22:28:59.002Z,13.57
2022-09-14T22:31:27.481Z,13.05
2022-09-14T22:33:55.835Z,14.40
2022-09-14T22:36:23.311Z,12.30
2022-09-14T22:38:50.094Z,14.45
2022-09-14T22:41:19.387Z,14.52
2022-09-14T22:43:47.042Z,12.18
2022-09-14T22:46:14.744Z,9.45
2022-09-14T22:48:42.016Z,8.63
2022-09-14T22:51:12.767Z,8.65
2022-09-14T22:53:39.659Z,10.98
2022-09-14T22:56:31.310Z,10.75
2022-09-14T22:58:58.987Z,9.38
2022-09-14T23:01:29.885Z,10.13
2022-09-14T23:03:59.281Z,12.93
2022-09-14T23:06:31.166Z,11.57
2022-09-14T23:09:00.402Z,12.43
2022-09-14T23:11:27.625Z,13.85
2022-09-14T23:13:54.419Z,11.43
2022-09-14T23:16:26.095Z,10.85
2022-09-14T23:18:55.087Z,8.60
2022-09-14T23:21:21.891Z,12.23
2022-09-14T23:23:56.747Z,11.82
2022-09-14T23:26:24.158Z,13.63
2022-09-14T23:28:52.891Z,11.93
2022-09-14T23:31:21.062Z,11.00
2022-09-14T23:33:52.754Z,11.80
2022-09-14T23:36:20.385Z,13.10
2022-09-14T23:38:48.095Z,12.57
2022-09-14T23:41:19.671Z,12.82
2022-09-14T23:43:47.035Z,12.85
2022-09-14T23:46:14.420Z,16.48
2022-09-14T23:48:41.293Z,14.77
2022-09-14T23:51:09.315Z,14.15
2022-09-14T23:53:37.174Z,12.65
2022-09-14T23:56:04.989Z,15.45
2022-09-14T23:58:32.486Z,14.05
